sensor_id;sensor_type;location;lat;lon;timestamp;pressure;altitude;pressure_sealevel;temperature;humidity
41515;BME280;27247;48.020;16.720;2022-07-29T00:03:45;99746.06;;;19.33;89.68
41515;BME280;27247;48.020;16.720;2022-07-29T00:07:55;99745.25;;;19.44;89.29
41515;BME280;27247;48.020;16.720;2022-07-29T00:12:06;99744.53;;;19.49;89.21
41515;BME280;27247;48.020;16.720;2022-07-29T00:16:16;99742.22;;;19.52;88.98
41515;BME280;27247;48.020;16.720;2022-07-29T00:20:27;99741.81;;;19.49;88.98
41515;BME280;27247;48.020;16.720;2022-07-29T00:24:37;99750.44;;;19.45;89.16
41515;BME280;27247;48.020;16.720;2022-07-29T00:28:48;99744.53;;;19.49;89.04
41515;BME280;27247;48.020;16.720;2022-07-29T00:32:58;99742.78;;;19.54;88.51
41515;BME280;27247;48.020;16.720;2022-07-29T00:37:08;99751.03;;;19.59;87.53
41515;BME280;27247;48.020;16.720;2022-07-29T00:41:19;99744.22;;;19.57;87.35
41515;BME280;27247;48.020;16.720;2022-07-29T00:45:29;99744.44;;;19.55;87.00
41515;BME280;27247;48.020;16.720;2022-07-29T00:49:41;99742.09;;;19.59;86.95
41515;BME280;27247;48.020;16.720;2022-07-29T00:53:52;99751.41;;;19.63;86.29
41515;BME280;27247;48.020;16.720;2022-07-29T00:58:03;99750.81;;;19.72;85.94
41515;BME280;27247;48.020;16.720;2022-07-29T01:02:13;99749.97;;;19.72;85.42
41515;BME280;27247;48.020;16.720;2022-07-29T01:06:24;99747.88;;;19.86;84.36
41515;BME280;27247;48.020;16.720;2022-07-29T01:10:36;99742.44;;;19.86;83.97
41515;BME280;27247;48.020;16.720;2022-07-29T01:14:48;99748.09;;;19.96;83.31
41515;BME280;27247;48.020;16.720;2022-07-29T01:19:19;99741.31;;;20.10;79.97
41515;BME280;27247;48.020;16.720;2022-07-29T01:32:46;99732.06;;;19.94;77.77
41515;BME280;27247;48.020;16.720;2022-07-29T01:37:06;99736.44;;;19.84;77.87
41515;BME280;27247;48.020;16.720;2022-07-29T01:41:19;99736.44;;;19.84;77.92
41515;BME280;27247;48.020;16.720;2022-07-29T01:45:40;99744.47;;;19.79;77.92
41515;BME280;27247;48.020;16.720;2022-07-29T01:49:53;99736.31;;;19.79;77.56
41515;BME280;27247;48.020;16.720;2022-07-29T01:54:13;99742.91;;;19.83;77.27
41515;BME280;27247;48.020;16.720;2022-07-29T01:58:24;99737.38;;;19.77;77.38
41515;BME280;27247;48.020;16.720;2022-07-29T02:02:37;99739.38;;;19.70;77.63
41515;BME280;27247;48.020;16.720;2022-07-29T02:06:50;99737.00;;;19.74;77.40
41515;BME280;27247;48.020;16.720;2022-07-29T02:11:03;99739.28;;;19.77;77.26
41515;BME280;27247;48.020;16.720;2022-07-29T02:15:16;99737.00;;;19.62;77.93
41515;BME280;27247;48.020;16.720;2022-07-29T02:19:28;99732.63;;;19.50;78.38
41515;BME280;27247;48.020;16.720;2022-07-29T02:23:40;99738.06;;;19.38;79.21
41515;BME280;27247;48.020;16.720;2022-07-29T02:27:51;99727.09;;;19.33;79.33
41515;BME280;27247;48.020;16.720;2022-07-29T02:32:03;99728.75;;;19.34;79.38
41515;BME280;27247;48.020;16.720;2022-07-29T02:36:14;99725.22;;;19.33;79.47
41515;BME280;27247;48.020;16.720;2022-07-29T02:40:26;99715.78;;;19.24;80.13
41515;BME280;27247;48.020;16.720;2022-07-29T02:44:36;99716.13;;;19.16;80.25
41515;BME280;27247;48.020;16.720;2022-07-29T02:49:02;99717.06;;;19.22;79.81
41515;BME280;27247;48.020;16.720;2022-07-29T02:53:16;99723.44;;;19.27;79.59
41515;BME280;27247;48.020;16.720;2022-07-29T02:57:34;99725.19;;;19.22;79.74
41515;BME280;27247;48.020;16.720;2022-07-29T03:01:45;99717.66;;;19.24;79.69
41515;BME280;27247;48.020;16.720;2022-07-29T03:05:57;99718.63;;;19.29;79.27
41515;BME280;27247;48.020;16.720;2022-07-29T03:10:09;99715.31;;;19.16;79.52
41515;BME280;27247;48.020;16.720;2022-07-29T03:14:20;99726.84;;;19.23;79.21
41515;BME280;27247;48.020;16.720;2022-07-29T03:18:31;99720.97;;;19.26;78.98
41515;BME280;27247;48.020;16.720;2022-07-29T03:22:43;99723.69;;;19.26;79.38
41515;BME280;27247;48.020;16.720;2022-07-29T03:26:56;99726.38;;;19.14;79.63
41515;BME280;27247;48.020;16.720;2022-07-29T03:31:07;99720.13;;;19.13;79.73
41515;BME280;27247;48.020;16.720;2022-07-29T03:35:19;99722.38;;;19.17;79.56
41515;BME280;27247;48.020;16.720;2022-07-29T03:39:33;99719.78;;;19.22;79.26
41515;BME280;27247;48.020;16.720;2022-07-29T03:43:46;99717.78;;;19.17;79.58
41515;BME280;27247;48.020;16.720;2022-07-29T03:48:01;99725.69;;;19.19;79.43
41515;BME280;27247;48.020;16.720;2022-07-29T03:52:12;99724.25;;;19.28;79.40
41515;BME280;27247;48.020;16.720;2022-07-29T03:56:27;99737.69;;;19.23;79.87
41515;BME280;27247;48.020;16.720;2022-07-29T04:00:40;99741.47;;;19.33;79.78
41515;BME280;27247;48.020;16.720;2022-07-29T04:04:50;99746.41;;;19.36;79.77
41515;BME280;27247;48.020;16.720;2022-07-29T04:09:01;99741.00;;;19.48;79.80
41515;BME280;27247;48.020;16.720;2022-07-29T04:13:11;99745.47;;;19.42;80.10
41515;BME280;27247;48.020;16.720;2022-07-29T04:17:21;99747.41;;;19.54;79.43
41515;BME280;27247;48.020;16.720;2022-07-29T04:21:40;99743.38;;;19.68;79.36
41515;BME280;27247;48.020;16.720;2022-07-29T04:25:50;99746.69;;;19.82;79.02
41515;BME280;27247;48.020;16.720;2022-07-29T04:30:01;99741.84;;;19.95;78.62
41515;BME280;27247;48.020;16.720;2022-07-29T04:34:12;99743.13;;;20.04;78.32
41515;BME280;27247;48.020;16.720;2022-07-29T04:38:22;99743.56;;;20.13;78.26
41515;BME280;27247;48.020;16.720;2022-07-29T04:42:33;99746.00;;;20.26;78.03
41515;BME280;27247;48.020;16.720;2022-07-29T04:46:43;99750.09;;;20.40;78.07
41515;BME280;27247;48.020;16.720;2022-07-29T04:50:53;99751.38;;;20.50;77.87
41515;BME280;27247;48.020;16.720;2022-07-29T04:55:05;99755.09;;;20.60;77.33
41515;BME280;27247;48.020;16.720;2022-07-29T04:59:15;99742.78;;;20.69;76.79
41515;BME280;27247;48.020;16.720;2022-07-29T05:03:25;99750.66;;;20.83;77.13
41515;BME280;27247;48.020;16.720;2022-07-29T05:07:36;99752.47;;;20.94;75.99
41515;BME280;27247;48.020;16.720;2022-07-29T05:11:46;99749.28;;;21.14;75.55
41515;BME280;27247;48.020;16.720;2022-07-29T05:15:56;99747.16;;;21.32;75.53
41515;BME280;27247;48.020;16.720;2022-07-29T05:20:08;99748.63;;;21.40;74.94
41515;BME280;27247;48.020;16.720;2022-07-29T05:24:19;99748.22;;;21.48;74.28
41515;BME280;27247;48.020;16.720;2022-07-29T05:28:33;99760.72;;;21.66;74.04
41515;BME280;27247;48.020;16.720;2022-07-29T05:32:43;99749.16;;;21.76;73.09
41515;BME280;27247;48.020;16.720;2022-07-29T05:36:53;99751.13;;;21.80;73.01
41515;BME280;27247;48.020;16.720;2022-07-29T05:41:04;99754.03;;;21.90;72.72
41515;BME280;27247;48.020;16.720;2022-07-29T05:45:16;99751.69;;;21.99;72.73
41515;BME280;27247;48.020;16.720;2022-07-29T05:49:26;99754.63;;;22.14;72.48
41515;BME280;27247;48.020;16.720;2022-07-29T05:53:37;99764.00;;;22.23;71.70
41515;BME280;27247;48.020;16.720;2022-07-29T05:57:47;99766.28;;;22.32;71.55
41515;BME280;27247;48.020;16.720;2022-07-29T06:01:57;99762.59;;;22.43;71.60
41515;BME280;27247;48.020;16.720;2022-07-29T06:06:08;99760.09;;;22.63;71.17
41515;BME280;27247;48.020;16.720;2022-07-29T06:10:18;99754.34;;;22.86;71.21
41515;BME280;27247;48.020;16.720;2022-07-29T06:14:29;99749.59;;;22.99;70.32
41515;BME280;27247;48.020;16.720;2022-07-29T06:18:39;99756.94;;;23.30;70.30
41515;BME280;27247;48.020;16.720;2022-07-29T06:22:50;99750.53;;;23.46;69.60
41515;BME280;27247;48.020;16.720;2022-07-29T06:27:00;99754.50;;;23.66;68.59
41515;BME280;27247;48.020;16.720;2022-07-29T06:31:11;99760.00;;;23.76;68.74
41515;BME280;27247;48.020;16.720;2022-07-29T06:35:21;99772.28;;;23.73;68.34
41515;BME280;27247;48.020;16.720;2022-07-29T06:39:34;99768.25;;;23.86;68.70
41515;BME280;27247;48.020;16.720;2022-07-29T06:43:45;99770.03;;;24.02;69.00
41515;BME280;27247;48.020;16.720;2022-07-29T06:47:55;99763.56;;;24.24;67.92
41515;BME280;27247;48.020;16.720;2022-07-29T06:52:06;99778.13;;;24.39;67.10
41515;BME280;27247;48.020;16.720;2022-07-29T06:56:16;99778.72;;;24.51;66.29
41515;BME280;27247;48.020;16.720;2022-07-29T07:00:27;99776.28;;;24.60;66.74
41515;BME280;27247;48.020;16.720;2022-07-29T07:04:37;99776.88;;;24.77;65.66
41515;BME280;27247;48.020;16.720;2022-07-29T07:08:47;99774.13;;;24.77;65.81
41515;BME280;27247;48.020;16.720;2022-07-29T07:12:58;99772.88;;;25.00;65.70
41515;BME280;27247;48.020;16.720;2022-07-29T07:17:09;99775.88;;;25.14;65.13
41515;BME280;27247;48.020;16.720;2022-07-29T07:21:19;99774.50;;;25.17;64.56
41515;BME280;27247;48.020;16.720;2022-07-29T07:25:30;99773.97;;;25.09;65.16
41515;BME280;27247;48.020;16.720;2022-07-29T07:29:40;99776.16;;;25.12;65.16
41515;BME280;27247;48.020;16.720;2022-07-29T07:33:51;99784.34;;;25.43;64.79
41515;BME280;27247;48.020;16.720;2022-07-29T07:38:03;99772.31;;;25.44;63.52
41515;BME280;27247;48.020;16.720;2022-07-29T07:42:13;99781.34;;;25.55;63.42
41515;BME280;27247;48.020;16.720;2022-07-29T07:46:23;99779.66;;;25.94;62.51
41515;BME280;27247;48.020;16.720;2022-07-29T07:50:34;99781.06;;;25.61;63.48
41515;BME280;27247;48.020;16.720;2022-07-29T07:54:44;99776.13;;;25.78;62.93
41515;BME280;27247;48.020;16.720;2022-07-29T07:58:54;99773.84;;;26.21;62.28
41515;BME280;27247;48.020;16.720;2022-07-29T08:03:05;99775.94;;;26.50;61.04
41515;BME280;27247;48.020;16.720;2022-07-29T08:07:15;99774.44;;;26.72;60.54
41515;BME280;27247;48.020;16.720;2022-07-29T08:11:25;99775.03;;;27.14;60.30
41515;BME280;27247;48.020;16.720;2022-07-29T08:15:36;99769.66;;;27.32;59.54
41515;BME280;27247;48.020;16.720;2022-07-29T08:19:46;99769.66;;;27.90;59.03
41515;BME280;27247;48.020;16.720;2022-07-29T08:23:58;99778.38;;;28.26;57.60
41515;BME280;27247;48.020;16.720;2022-07-29T08:28:27;99775.00;;;28.53;56.07
41515;BME280;27247;48.020;16.720;2022-07-29T08:32:37;99778.41;;;28.45;55.62
41515;BME280;27247;48.020;16.720;2022-07-29T08:36:48;99771.03;;;28.83;55.77
41515;BME280;27247;48.020;16.720;2022-07-29T08:41:00;99774.94;;;29.34;55.20
41515;BME280;27247;48.020;16.720;2022-07-29T08:45:11;99761.13;;;29.52;53.72
41515;BME280;27247;48.020;16.720;2022-07-29T08:49:22;99773.47;;;29.22;54.15
41515;BME280;27247;48.020;16.720;2022-07-29T08:53:32;99770.16;;;29.85;53.65
41515;BME280;27247;48.020;16.720;2022-07-29T08:57:44;99765.78;;;29.98;53.11
41515;BME280;27247;48.020;16.720;2022-07-29T09:01:56;99761.38;;;29.70;52.65
41515;BME280;27247;48.020;16.720;2022-07-29T09:06:13;99759.09;;;30.18;51.62
41515;BME280;27247;48.020;16.720;2022-07-29T09:10:24;99768.47;;;30.03;51.64
41515;BME280;27247;48.020;16.720;2022-07-29T09:14:34;99759.09;;;30.18;52.20
41515;BME280;27247;48.020;16.720;2022-07-29T09:18:45;99761.75;;;30.23;52.17
41515;BME280;27247;48.020;16.720;2022-07-29T09:22:56;99752.81;;;30.54;50.83
41515;BME280;27247;48.020;16.720;2022-07-29T09:27:24;99751.69;;;30.55;51.51
41515;BME280;27247;48.020;16.720;2022-07-29T09:31:38;99749.56;;;30.52;51.16
41515;BME280;27247;48.020;16.720;2022-07-29T09:36:05;99743.66;;;30.17;50.60
41515;BME280;27247;48.020;16.720;2022-07-29T09:40:25;99740.47;;;30.87;51.18
41515;BME280;27247;48.020;16.720;2022-07-29T09:49:06;99731.72;;;31.52;48.94
41515;BME280;27247;48.020;16.720;2022-07-29T09:53:37;99730.88;;;31.07;48.41
41515;BME280;27247;48.020;16.720;2022-07-29T09:57:48;99730.66;;;31.17;49.15
41515;BME280;27247;48.020;16.720;2022-07-29T10:01:59;99724.84;;;30.83;47.47
41515;BME280;27247;48.020;16.720;2022-07-29T10:06:11;99720.84;;;31.25;47.74
41515;BME280;27247;48.020;16.720;2022-07-29T10:10:25;99718.44;;;31.32;48.19
41515;BME280;27247;48.020;16.720;2022-07-29T10:14:37;99720.13;;;31.41;45.99
41515;BME280;27247;48.020;16.720;2022-07-29T10:18:47;99717.75;;;31.26;46.00
41515;BME280;27247;48.020;16.720;2022-07-29T10:22:58;99713.53;;;31.29;45.54
41515;BME280;27247;48.020;16.720;2022-07-29T10:27:08;99713.22;;;31.61;45.09
41515;BME280;27247;48.020;16.720;2022-07-29T10:31:26;99709.63;;;31.92;45.79
41515;BME280;27247;48.020;16.720;2022-07-29T10:40:09;99698.03;;;31.19;44.00
41515;BME280;27247;48.020;16.720;2022-07-29T10:44:40;99701.53;;;31.64;44.05
41515;BME280;27247;48.020;16.720;2022-07-29T10:53:22;99687.53;;;31.61;45.04
41515;BME280;27247;48.020;16.720;2022-07-29T10:57:33;99688.38;;;31.30;44.99
41515;BME280;27247;48.020;16.720;2022-07-29T11:01:47;99676.41;;;31.43;44.76
41515;BME280;27247;48.020;16.720;2022-07-29T11:05:59;99685.16;;;30.56;44.07
41515;BME280;27247;48.020;16.720;2022-07-29T11:14:58;99677.31;;;30.49;45.10
41515;BME280;27247;48.020;16.720;2022-07-29T11:23:33;99678.00;;;29.92;47.44
41515;BME280;27247;48.020;16.720;2022-07-29T11:27:48;99678.00;;;29.64;48.16
41515;BME280;27247;48.020;16.720;2022-07-29T11:32:13;99678.81;;;29.51;48.28
41515;BME280;27247;48.020;16.720;2022-07-29T11:36:25;99672.06;;;29.43;48.27
41515;BME280;27247;48.020;16.720;2022-07-29T11:40:36;99673.34;;;29.32;49.00
41515;BME280;27247;48.020;16.720;2022-07-29T11:49:06;99667.69;;;29.56;48.82
41515;BME280;27247;48.020;16.720;2022-07-29T11:53:19;99669.53;;;29.74;48.07
41515;BME280;27247;48.020;16.720;2022-07-29T11:57:30;99664.31;;;30.64;47.70
41515;BME280;27247;48.020;16.720;2022-07-29T12:01:52;99657.13;;;30.76;47.91
41515;BME280;27247;48.020;16.720;2022-07-29T12:06:11;99643.94;;;31.18;46.07
41515;BME280;27247;48.020;16.720;2022-07-29T12:10:30;99633.44;;;31.06;45.42
41515;BME280;27247;48.020;16.720;2022-07-29T12:14:40;99632.84;;;30.87;45.09
41515;BME280;27247;48.020;16.720;2022-07-29T12:18:59;99627.03;;;31.20;46.30
41515;BME280;27247;48.020;16.720;2022-07-29T12:23:11;99616.66;;;31.56;44.91
41515;BME280;27247;48.020;16.720;2022-07-29T12:27:24;99615.41;;;31.23;42.94
41515;BME280;27247;48.020;16.720;2022-07-29T12:31:35;99609.91;;;31.09;43.49
41515;BME280;27247;48.020;16.720;2022-07-29T12:35:51;99596.91;;;31.71;44.45
41515;BME280;27247;48.020;16.720;2022-07-29T12:40:05;99601.06;;;31.60;45.41
41515;BME280;27247;48.020;16.720;2022-07-29T12:44:16;99596.25;;;31.74;44.62
41515;BME280;27247;48.020;16.720;2022-07-29T12:48:36;99603.84;;;32.26;43.58
41515;BME280;27247;48.020;16.720;2022-07-29T12:52:48;99590.47;;;32.62;41.54
41515;BME280;27247;48.020;16.720;2022-07-29T12:56:59;99588.72;;;32.41;41.86
41515;BME280;27247;48.020;16.720;2022-07-29T13:01:12;99569.47;;;32.70;42.18
41515;BME280;27247;48.020;16.720;2022-07-29T13:05:38;99579.22;;;31.98;42.69
41515;BME280;27247;48.020;16.720;2022-07-29T13:09:49;99576.19;;;31.52;43.94
41515;BME280;27247;48.020;16.720;2022-07-29T13:14:00;99576.75;;;31.71;43.15
41515;BME280;27247;48.020;16.720;2022-07-29T13:18:29;99580.56;;;31.53;43.58
41515;BME280;27247;48.020;16.720;2022-07-29T13:22:41;99583.25;;;31.75;43.22
41515;BME280;27247;48.020;16.720;2022-07-29T13:26:52;99575.06;;;31.61;43.86
41515;BME280;27247;48.020;16.720;2022-07-29T13:31:02;99565.91;;;31.35;44.04
41515;BME280;27247;48.020;16.720;2022-07-29T13:35:13;99571.88;;;31.06;44.67
41515;BME280;27247;48.020;16.720;2022-07-29T13:39:23;99566.00;;;31.21;45.13
41515;BME280;27247;48.020;16.720;2022-07-29T13:43:34;99567.00;;;31.03;45.58
41515;BME280;27247;48.020;16.720;2022-07-29T13:47:44;99558.69;;;30.94;45.26
41515;BME280;27247;48.020;16.720;2022-07-29T13:51:54;99558.81;;;30.89;45.63
41515;BME280;27247;48.020;16.720;2022-07-29T13:56:05;99561.31;;;30.99;47.32
41515;BME280;27247;48.020;16.720;2022-07-29T14:00:18;99555.19;;;30.80;46.85
41515;BME280;27247;48.020;16.720;2022-07-29T14:04:29;99552.41;;;30.71;46.67
41515;BME280;27247;48.020;16.720;2022-07-29T14:08:39;99554.53;;;30.74;46.51
41515;BME280;27247;48.020;16.720;2022-07-29T14:12:50;99556.66;;;30.33;46.99
41515;BME280;27247;48.020;16.720;2022-07-29T14:17:00;99566.06;;;30.32;47.71
41515;BME280;27247;48.020;16.720;2022-07-29T14:21:13;99582.59;;;30.32;56.20
41515;BME280;27247;48.020;16.720;2022-07-29T14:25:23;99588.44;;;30.16;56.43
41515;BME280;27247;48.020;16.720;2022-07-29T14:29:34;99602.41;;;29.57;58.80
41515;BME280;27247;48.020;16.720;2022-07-29T14:33:44;99690.25;;;27.41;65.69
41515;BME280;27247;48.020;16.720;2022-07-29T14:37:54;99722.00;;;25.25;72.65
41515;BME280;27247;48.020;16.720;2022-07-29T14:42:05;99725.81;;;25.24;80.21
41515;BME280;27247;48.020;16.720;2022-07-29T14:46:15;99724.63;;;24.59;86.10
41515;BME280;27247;48.020;16.720;2022-07-29T14:50:26;99694.91;;;23.95;90.71
41515;BME280;27247;48.020;16.720;2022-07-29T14:54:36;99664.72;;;23.64;90.95
41515;BME280;27247;48.020;16.720;2022-07-29T14:58:46;99648.44;;;23.37;93.60
41515;BME280;27247;48.020;16.720;2022-07-29T15:02:58;99642.63;;;23.23;94.72
41515;BME280;27247;48.020;16.720;2022-07-29T15:07:08;99642.63;;;23.18;96.39
41515;BME280;27247;48.020;16.720;2022-07-29T15:11:18;99638.00;;;23.24;95.98
41515;BME280;27247;48.020;16.720;2022-07-29T15:15:29;99639.22;;;23.43;95.89
41515;BME280;27247;48.020;16.720;2022-07-29T15:19:39;99630.84;;;23.55;93.49
41515;BME280;27247;48.020;16.720;2022-07-29T15:23:50;99630.38;;;23.73;95.54
41515;BME280;27247;48.020;16.720;2022-07-29T15:28:00;99645.09;;;23.67;92.55
41515;BME280;27247;48.020;16.720;2022-07-29T15:32:12;99637.72;;;23.68;94.28
41515;BME280;27247;48.020;16.720;2022-07-29T15:36:23;99650.84;;;23.76;94.89
41515;BME280;27247;48.020;16.720;2022-07-29T15:40:34;99635.31;;;23.81;94.90
41515;BME280;27247;48.020;16.720;2022-07-29T15:44:46;99645.53;;;24.06;94.92
41515;BME280;27247;48.020;16.720;2022-07-29T15:48:56;99646.44;;;24.27;93.47
41515;BME280;27247;48.020;16.720;2022-07-29T15:53:06;99642.38;;;24.50;95.74
41515;BME280;27247;48.020;16.720;2022-07-29T15:57:17;99638.53;;;24.51;97.02
41515;BME280;27247;48.020;16.720;2022-07-29T16:01:27;99633.06;;;24.46;91.30
41515;BME280;27247;48.020;16.720;2022-07-29T16:05:37;99621.84;;;24.32;91.64
41515;BME280;27247;48.020;16.720;2022-07-29T16:09:48;99614.16;;;24.24;91.38
41515;BME280;27247;48.020;16.720;2022-07-29T16:13:58;99619.06;;;24.17;89.42
41515;BME280;27247;48.020;16.720;2022-07-29T16:18:08;99611.13;;;24.10;91.28
41515;BME280;27247;48.020;16.720;2022-07-29T16:22:19;99613.03;;;24.00;89.31
41515;BME280;27247;48.020;16.720;2022-07-29T16:26:30;99610.03;;;24.01;90.47
41515;BME280;27247;48.020;16.720;2022-07-29T16:30:40;99611.09;;;23.95;88.88
41515;BME280;27247;48.020;16.720;2022-07-29T16:34:50;99611.88;;;23.91;89.87
41515;BME280;27247;48.020;16.720;2022-07-29T16:39:01;99612.16;;;23.89;89.11
41515;BME280;27247;48.020;16.720;2022-07-29T16:43:11;99614.03;;;23.83;90.19
41515;BME280;27247;48.020;16.720;2022-07-29T16:47:21;99601.16;;;23.69;89.36
41515;BME280;27247;48.020;16.720;2022-07-29T16:51:32;99613.69;;;23.60;90.70
41515;BME280;27247;48.020;16.720;2022-07-29T16:55:42;99629.69;;;23.51;92.48
41515;BME280;27247;48.020;16.720;2022-07-29T16:59:52;99633.19;;;23.41;95.52
41515;BME280;27247;48.020;16.720;2022-07-29T17:04:03;99623.78;;;23.59;91.95
41515;BME280;27247;48.020;16.720;2022-07-29T17:08:16;99608.75;;;23.56;89.95
41515;BME280;27247;48.020;16.720;2022-07-29T17:12:26;99596.44;;;23.54;90.69
41515;BME280;27247;48.020;16.720;2022-07-29T17:16:37;99580.41;;;23.63;91.42
41515;BME280;27247;48.020;16.720;2022-07-29T17:20:47;99581.53;;;23.77;91.56
41515;BME280;27247;48.020;16.720;2022-07-29T17:24:57;99579.91;;;23.81;90.10
41515;BME280;27247;48.020;16.720;2022-07-29T17:29:08;99573.91;;;23.84;89.28
41515;BME280;27247;48.020;16.720;2022-07-29T17:33:18;99564.09;;;23.88;89.83
41515;BME280;27247;48.020;16.720;2022-07-29T17:37:29;99561.94;;;23.90;90.18
41515;BME280;27247;48.020;16.720;2022-07-29T17:41:39;99557.28;;;23.91;91.25
41515;BME280;27247;48.020;16.720;2022-07-29T17:45:50;99563.88;;;24.00;92.67
41515;BME280;27247;48.020;16.720;2022-07-29T17:50:00;99553.72;;;23.90;92.79
41515;BME280;27247;48.020;16.720;2022-07-29T17:54:11;99562.47;;;23.87;92.01
41515;BME280;27247;48.020;16.720;2022-07-29T17:58:21;99562.19;;;23.88;91.64
41515;BME280;27247;48.020;16.720;2022-07-29T18:02:31;99575.00;;;23.83;92.21
41515;BME280;27247;48.020;16.720;2022-07-29T18:06:42;99565.72;;;23.79;94.37
41515;BME280;27247;48.020;16.720;2022-07-29T18:10:52;99557.50;;;23.69;95.27
41515;BME280;27247;48.020;16.720;2022-07-29T18:15:03;99577.91;;;23.56;94.46
41515;BME280;27247;48.020;16.720;2022-07-29T18:19:14;99581.94;;;23.43;95.06
41515;BME280;27247;48.020;16.720;2022-07-29T18:23:25;99584.09;;;23.41;94.16
41515;BME280;27247;48.020;16.720;2022-07-29T18:27:35;99583.22;;;23.25;94.24
41515;BME280;27247;48.020;16.720;2022-07-29T18:31:45;99585.09;;;23.20;94.38
41515;BME280;27247;48.020;16.720;2022-07-29T18:35:56;99589.66;;;23.09;95.79
41515;BME280;27247;48.020;16.720;2022-07-29T18:40:07;99599.94;;;22.97;96.00
41515;BME280;27247;48.020;16.720;2022-07-29T18:44:18;99607.88;;;22.72;97.45
41515;BME280;27247;48.020;16.720;2022-07-29T18:48:31;99607.97;;;22.50;98.80
41515;BME280;27247;48.020;16.720;2022-07-29T18:52:41;99602.97;;;22.37;99.40
41515;BME280;27247;48.020;16.720;2022-07-29T18:56:52;99602.28;;;22.24;100.00
41515;BME280;27247;48.020;16.720;2022-07-29T19:01:02;99610.41;;;22.19;100.00
41515;BME280;27247;48.020;16.720;2022-07-29T19:05:12;99609.78;;;22.12;100.00
41515;BME280;27247;48.020;16.720;2022-07-29T19:09:23;99607.03;;;22.07;100.00
41515;BME280;27247;48.020;16.720;2022-07-29T19:13:33;99601.19;;;21.98;100.00
41515;BME280;27247;48.020;16.720;2022-07-29T19:17:43;99602.78;;;21.94;100.00
41515;BME280;27247;48.020;16.720;2022-07-29T19:21:55;99613.34;;;21.91;100.00
41515;BME280;27247;48.020;16.720;2022-07-29T19:26:06;99616.00;;;21.86;100.00
41515;BME280;27247;48.020;16.720;2022-07-29T19:30:16;99620.63;;;21.85;100.00
41515;BME280;27247;48.020;16.720;2022-07-29T19:34:27;99620.16;;;21.72;100.00
41515;BME280;27247;48.020;16.720;2022-07-29T19:38:38;99628.59;;;21.70;100.00
41515;BME280;27247;48.020;16.720;2022-07-29T19:42:48;99628.19;;;21.61;100.00
41515;BME280;27247;48.020;16.720;2022-07-29T19:47:00;99624.03;;;21.54;100.00
41515;BME280;27247;48.020;16.720;2022-07-29T19:51:11;99637.63;;;21.54;100.00
41515;BME280;27247;48.020;16.720;2022-07-29T19:55:22;99632.94;;;21.49;100.00
41515;BME280;27247;48.020;16.720;2022-07-29T19:59:32;99633.13;;;21.43;100.00
41515;BME280;27247;48.020;16.720;2022-07-29T20:03:43;99642.34;;;21.42;100.00
41515;BME280;27247;48.020;16.720;2022-07-29T20:07:54;99642.94;;;21.44;100.00
41515;BME280;27247;48.020;16.720;2022-07-29T20:12:04;99644.50;;;21.40;100.00
41515;BME280;27247;48.020;16.720;2022-07-29T20:16:15;99650.25;;;21.43;100.00
41515;BME280;27247;48.020;16.720;2022-07-29T20:20:26;99653.72;;;21.39;100.00
41515;BME280;27247;48.020;16.720;2022-07-29T20:24:39;99660.56;;;21.41;100.00
41515;BME280;27247;48.020;16.720;2022-07-29T20:28:49;99656.19;;;21.40;100.00
41515;BME280;27247;48.020;16.720;2022-07-29T20:32:59;99652.97;;;21.43;100.00
41515;BME280;27247;48.020;16.720;2022-07-29T20:37:09;99660.75;;;21.34;100.00
41515;BME280;27247;48.020;16.720;2022-07-29T20:41:22;99653.28;;;21.25;100.00
41515;BME280;27247;48.020;16.720;2022-07-29T20:45:34;99652.50;;;21.13;100.00
41515;BME280;27247;48.020;16.720;2022-07-29T20:49:45;99648.56;;;21.03;100.00
41515;BME280;27247;48.020;16.720;2022-07-29T20:53:55;99651.13;;;20.93;100.00
41515;BME280;27247;48.020;16.720;2022-07-29T20:58:06;99642.00;;;20.83;100.00
41515;BME280;27247;48.020;16.720;2022-07-29T21:02:16;99642.97;;;20.77;100.00
41515;BME280;27247;48.020;16.720;2022-07-29T21:06:27;99643.19;;;20.75;100.00
41515;BME280;27247;48.020;16.720;2022-07-29T21:10:37;99639.91;;;20.73;100.00
41515;BME280;27247;48.020;16.720;2022-07-29T21:14:47;99635.53;;;20.72;100.00
41515;BME280;27247;48.020;16.720;2022-07-29T21:18:58;99648.22;;;20.66;100.00
41515;BME280;27247;48.020;16.720;2022-07-29T21:23:08;99643.03;;;20.65;100.00
41515;BME280;27247;48.020;16.720;2022-07-29T21:27:19;99648.28;;;20.55;100.00
41515;BME280;27247;48.020;16.720;2022-07-29T21:31:48;99646.66;;;20.54;100.00
41515;BME280;27247;48.020;16.720;2022-07-29T21:36:00;99642.63;;;20.56;100.00
41515;BME280;27247;48.020;16.720;2022-07-29T21:40:11;99646.72;;;20.59;100.00
41515;BME280;27247;48.020;16.720;2022-07-29T21:44:21;99651.75;;;20.50;100.00
41515;BME280;27247;48.020;16.720;2022-07-29T21:48:31;99647.53;;;20.43;100.00
41515;BME280;27247;48.020;16.720;2022-07-29T21:52:42;99654.94;;;20.47;100.00
41515;BME280;27247;48.020;16.720;2022-07-29T21:56:52;99646.88;;;20.52;100.00
41515;BME280;27247;48.020;16.720;2022-07-29T22:01:02;99637.44;;;20.55;100.00
41515;BME280;27247;48.020;16.720;2022-07-29T22:05:14;99642.69;;;20.16;100.00
41515;BME280;27247;48.020;16.720;2022-07-29T22:09:24;99641.03;;;20.15;100.00
41515;BME280;27247;48.020;16.720;2022-07-29T22:13:34;99629.34;;;20.15;100.00
41515;BME280;27247;48.020;16.720;2022-07-29T22:17:45;99632.16;;;20.20;100.00
41515;BME280;27247;48.020;16.720;2022-07-29T22:21:55;99629.13;;;20.16;100.00
41515;BME280;27247;48.020;16.720;2022-07-29T22:26:06;99634.59;;;20.04;100.00
41515;BME280;27247;48.020;16.720;2022-07-29T22:30:16;99630.72;;;20.00;100.00